Time;durP1;ratioP1;P1;durP2;ratioP2;P2;SDS_P1;SDS_P2;PMS_P1;PMS_P2;Temp;Humidity;BMP_temperature;BMP_pressure;BME280_temperature;BME280_humidity;BME280_pressure;Samples;Min_cycle;Max_cycle;Signal;HPM_P1;HPM_P2
2023/08/17 00:01:34;;;;;;;12.50;10.20;;;;;;;26.62;57.10;99979.05;105956;1254;61763;-72
2023/08/17 00:04:01;;;;;;;13.80;9.90;;;;;;;26.68;56.86;99977.42;105946;1254;61245;-71
2023/08/17 00:06:29;;;;;;;19.50;10.40;;;;;;;26.52;57.28;99973.19;105992;1256;75098;-70
2023/08/17 00:08:56;;;;;;;12.10;10.10;;;;;;;26.52;57.48;99976.56;105957;1254;69109;-75
2023/08/17 00:11:23;;;;;;;15.50;11.20;;;;;;;26.43;58.20;99979.30;106028;1255;72995;-69
2023/08/17 00:13:50;;;;;;;17.00;12.50;;;;;;;26.33;58.78;99979.63;105976;1253;61791;-71
2023/08/17 00:16:16;;;;;;;19.60;12.80;;;;;;;26.27;59.21;99977.51;105937;1256;61350;-71
2023/08/17 00:18:44;;;;;;;23.40;14.80;;;;;;;26.23;59.55;99983.38;105915;1256;74986;-71
2023/08/17 00:21:10;;;;;;;19.90;13.70;;;;;;;26.13;60.35;99980.40;105914;1254;69267;-72
2023/08/17 00:23:38;;;;;;;29.00;16.10;;;;;;;26.02;60.63;99977.80;105904;1257;73089;-71
2023/08/17 00:26:05;;;;;;;25.80;17.10;;;;;;;26.05;60.60;99978.45;105978;1256;61876;-72
2023/08/17 00:28:32;;;;;;;29.10;17.30;;;;;;;26.05;60.82;99982.28;105963;1257;62279;-71
2023/08/17 00:30:59;;;;;;;30.60;19.30;;;;;;;25.93;61.54;99980.52;105665;1260;74139;-72
2023/08/17 00:33:26;;;;;;;31.40;19.10;;;;;;;25.92;61.83;99981.89;105960;1254;69163;-71
2023/08/17 00:35:53;;;;;;;37.40;20.60;;;;;;;25.99;61.67;99982.10;105915;1256;73078;-71
2023/08/17 00:38:20;;;;;;;40.70;20.90;;;;;;;26.02;61.75;99982.73;105928;1254;61886;-69
2023/08/17 00:40:47;;;;;;;38.20;21.10;;;;;;;26.03;61.73;99982.69;105928;1256;62214;-70
2023/08/17 00:43:14;;;;;;;36.90;21.50;;;;;;;25.95;62.08;99981.90;105939;1256;74313;-70
2023/08/17 00:45:41;;;;;;;36.10;20.20;;;;;;;26.02;61.74;99984.77;105916;1257;69125;-70
2023/08/17 00:48:10;;;;;;;30.10;19.60;;;;;;;25.97;61.79;99981.98;105897;1256;73167;-70
2023/08/17 00:50:37;;;;;;;29.10;20.00;;;;;;;25.87;62.32;99983.80;105953;1257;61855;-72
2023/08/17 00:53:04;;;;;;;25.30;17.60;;;;;;;25.92;62.29;99981.43;105673;1255;61452;-72
2023/08/17 00:55:31;;;;;;;28.70;16.70;;;;;;;25.89;62.25;99981.27;105700;1260;74893;-72
2023/08/17 00:57:58;;;;;;;28.60;18.30;;;;;;;25.87;62.25;99982.52;105970;1254;69046;-70
2023/08/17 01:00:28;;;;;;;26.70;18.00;;;;;;;25.77;63.16;99981.33;105584;1254;73085;-70
2023/08/17 01:02:55;;;;;;;24.40;17.60;;;;;;;25.81;62.87;99979.17;105942;1252;61817;-71
2023/08/17 01:05:23;;;;;;;27.70;17.70;;;;;;;25.71;63.09;99978.54;105911;1254;62299;-70
2023/08/17 01:07:50;;;;;;;30.60;18.30;;;;;;;25.66;63.20;99981.63;105887;1254;74941;-70
2023/08/17 01:10:17;;;;;;;26.00;18.00;;;;;;;25.69;63.28;99977.86;105945;1254;69156;-69
2023/08/17 01:12:53;;;;;;;36.40;18.70;;;;;;;25.65;63.75;99981.50;105888;1256;73077;-73
2023/08/17 01:15:35;;;;;;;25.10;16.90;;;;;;;25.59;64.04;99981.48;105905;1254;62101;-73
2023/08/17 01:18:16;;;;;;;27.50;17.70;;;;;;;25.57;63.98;99977.73;105951;1254;61329;-71
2023/08/17 01:20:44;;;;;;;26.80;17.70;;;;;;;25.64;63.49;99980.53;105949;1257;74438;-71
2023/08/17 01:23:10;;;;;;;34.50;19.60;;;;;;;25.66;62.83;99981.70;105965;1258;68375;-72
2023/08/17 01:25:37;;;;;;;24.40;17.70;;;;;;;25.61;63.56;99983.66;105862;1254;72222;-71
2023/08/17 01:28:04;;;;;;;31.70;16.60;;;;;;;25.44;64.38;99979.81;105695;1254;62129;-70
2023/08/17 01:30:44;;;;;;;23.20;16.90;;;;;;;25.49;64.18;99984.60;105948;1254;61341;-72
2023/08/17 01:33:11;;;;;;;26.40;15.80;;;;;;;25.47;64.25;99979.38;106001;1256;75054;-70
2023/08/17 01:35:41;;;;;;;22.50;15.60;;;;;;;25.35;64.99;99978.05;105939;1255;68560;-71
2023/08/17 01:38:13;;;;;;;21.80;16.60;;;;;;;25.32;65.27;99978.17;105894;1254;72935;-72
2023/08/17 01:40:39;;;;;;;23.70;16.50;;;;;;;25.21;65.75;99973.60;105868;1254;61260;-71
2023/08/17 01:43:06;;;;;;;30.00;18.60;;;;;;;25.28;65.60;99973.16;105713;1254;61302;-69
2023/08/17 01:45:33;;;;;;;30.70;19.80;;;;;;;25.36;65.11;99975.80;105882;1256;75348;-69
2023/08/17 01:48:01;;;;;;;31.60;20.60;;;;;;;25.28;65.28;99973.90;105987;1257;68468;-72
2023/08/17 01:50:28;;;;;;;29.10;20.30;;;;;;;25.19;65.76;99971.84;106003;1254;73105;-76
2023/08/17 01:52:54;;;;;;;26.10;19.70;;;;;;;25.08;66.29;99968.23;105912;1254;61975;-70
2023/08/17 01:55:22;;;;;;;22.10;16.70;;;;;;;25.10;66.23;99970.27;105953;1254;61334;-72
2023/08/17 01:57:49;;;;;;;29.80;19.20;;;;;;;25.10;66.82;99970.93;105915;1257;75132;-70
2023/08/17 02:00:17;;;;;;;28.80;19.80;;;;;;;25.13;66.59;99968.34;105920;1254;69096;-71
2023/08/17 02:02:44;;;;;;;26.20;17.20;;;;;;;25.07;66.79;99967.51;105956;1256;73123;-72
2023/08/17 02:05:11;;;;;;;26.60;17.50;;;;;;;25.11;66.66;99973.98;105991;1255;61670;-72
2023/08/17 02:07:38;;;;;;;35.10;17.70;;;;;;;25.05;66.67;99971.98;105945;1254;61309;-72
2023/08/17 02:10:06;;;;;;;26.20;17.70;;;;;;;25.05;66.95;99974.25;105865;1254;74870;-71
2023/08/17 02:12:33;;;;;;;30.90;17.60;;;;;;;25.04;67.39;99972.52;105731;1254;69011;-74
2023/08/17 02:15:00;;;;;;;29.00;18.80;;;;;;;25.00;67.74;99974.04;105950;1254;72963;-71
2023/08/17 02:17:27;;;;;;;29.60;18.70;;;;;;;24.98;67.89;99974.04;106031;1254;61565;-71
2023/08/17 02:19:54;;;;;;;28.20;20.10;;;;;;;24.96;68.12;99978.27;105952;1257;61229;-70
2023/08/17 02:22:21;;;;;;;32.10;20.00;;;;;;;24.95;68.25;99979.98;105891;1256;75045;-70
2023/08/17 02:24:47;;;;;;;27.50;19.90;;;;;;;24.85;68.90;99977.92;105979;1253;69460;-70
2023/08/17 02:27:14;;;;;;;29.50;22.40;;;;;;;24.82;69.29;99978.27;105970;1254;73478;-71
2023/08/17 02:29:41;;;;;;;32.70;23.90;;;;;;;24.74;70.36;99980.59;105916;1254;61842;-71
2023/08/17 02:32:08;;;;;;;33.90;22.30;;;;;;;24.77;70.39;99981.14;106019;1255;61386;-73
2023/08/17 02:34:35;;;;;;;44.10;22.00;;;;;;;24.85;70.04;99979.09;105617;1259;75162;-69
2023/08/17 02:37:02;;;;;;;35.40;22.50;;;;;;;24.93;69.38;99976.77;105911;1254;68969;-70
2023/08/17 02:39:29;;;;;;;34.50;22.40;;;;;;;24.89;69.52;99977.81;105994;1254;73130;-71
2023/08/17 02:41:55;;;;;;;36.90;23.60;;;;;;;24.90;69.31;99976.29;105890;1252;61733;-69
2023/08/17 02:44:22;;;;;;;33.80;22.80;;;;;;;24.97;68.64;99978.96;105677;1254;61318;-72
2023/08/17 02:46:49;;;;;;;31.30;20.60;;;;;;;24.87;68.96;99977.03;106003;1256;74147;-70
2023/08/17 02:49:16;;;;;;;27.70;18.70;;;;;;;24.78;69.65;99981.59;105942;1256;68789;-71
2023/08/17 02:51:43;;;;;;;27.70;18.40;;;;;;;24.66;70.70;99975.05;105846;1257;72963;-74
2023/08/17 02:54:10;;;;;;;27.70;18.60;;;;;;;24.56;71.85;99978.75;105961;1252;61674;-70
2023/08/17 02:56:37;;;;;;;37.50;16.20;;;;;;;24.71;71.19;99976.55;105967;1255;61353;-71
2023/08/17 02:59:04;;;;;;;26.50;15.60;;;;;;;24.87;70.11;99981.73;106024;1252;74886;-70
2023/08/17 03:01:32;;;;;;;21.30;13.70;;;;;;;24.79;70.63;99981.31;105946;1254;68846;-69
2023/08/17 03:04:17;;;;;;;23.60;15.40;;;;;;;24.88;70.40;99982.95;105912;1252;73004;-71
2023/08/17 03:06:44;;;;;;;25.40;15.60;;;;;;;24.86;70.47;99979.66;106001;1253;61877;-69
2023/08/17 03:09:11;;;;;;;24.30;15.20;;;;;;;24.94;70.28;99982.45;105894;1255;61320;-69
2023/08/17 03:11:38;;;;;;;18.60;13.90;;;;;;;25.07;69.55;99979.61;105954;1254;74462;-70
2023/08/17 03:14:05;;;;;;;19.90;14.00;;;;;;;25.27;68.23;99985.94;105958;1253;68746;-72
2023/08/17 03:16:31;;;;;;;27.60;15.80;;;;;;;25.32;67.84;99985.00;105907;1253;73208;-72
2023/08/17 03:18:59;;;;;;;20.20;14.10;;;;;;;25.31;67.70;99985.69;105953;1254;61873;-71
2023/08/17 03:21:26;;;;;;;27.80;17.20;;;;;;;25.27;68.16;99985.84;105956;1253;61423;-69
2023/08/17 03:23:53;;;;;;;21.20;16.00;;;;;;;25.48;66.96;99987.48;105965;1255;73967;-71
2023/08/17 03:26:20;;;;;;;22.20;16.30;;;;;;;25.50;66.88;99987.55;105926;1254;69330;-69
2023/08/17 03:28:47;;;;;;;22.80;15.30;;;;;;;25.65;66.28;99986.92;105928;1254;73169;-70
2023/08/17 03:31:14;;;;;;;24.90;15.50;;;;;;;25.96;64.98;99987.98;105985;1255;62304;-71
2023/08/17 03:33:41;;;;;;;20.40;14.70;;;;;;;26.16;63.95;99990.48;105921;1252;61231;-71
2023/08/17 03:36:08;;;;;;;27.80;15.80;;;;;;;26.47;62.25;99992.86;106007;1256;74964;-72
2023/08/17 03:38:37;;;;;;;20.90;14.20;;;;;;;26.69;61.35;99995.70;105926;1254;69181;-77
2023/08/17 03:41:05;;;;;;;31.50;16.90;;;;;;;26.93;59.56;100000.35;105954;1254;72962;-75
2023/08/17 03:43:32;;;;;;;27.90;17.20;;;;;;;27.10;58.63;99996.94;105939;1255;61865;-71
2023/08/17 03:46:00;;;;;;;27.60;17.20;;;;;;;27.26;57.30;99994.84;105957;1253;61305;-70
2023/08/17 03:48:26;;;;;;;29.40;17.30;;;;;;;27.32;56.70;99992.17;105892;1254;74914;-71
2023/08/17 03:50:54;;;;;;;58.80;19.40;;;;;;;27.47;56.25;99995.05;105929;1253;68954;-72
2023/08/17 03:53:21;;;;;;;35.70;18.00;;;;;;;27.59;55.70;99994.54;105944;1254;73040;-71
2023/08/17 03:55:49;;;;;;;31.40;16.20;;;;;;;27.61;55.34;99994.91;105726;1257;61215;-72
2023/08/17 03:58:16;;;;;;;31.80;17.00;;;;;;;27.77;54.60;99992.92;105968;1251;61229;-77
2023/08/17 04:00:50;;;;;;;25.70;16.00;;;;;;;27.92;53.79;100001.78;105982;1257;73225;-76
2023/08/17 04:03:19;;;;;;;21.70;14.80;;;;;;;28.10;53.19;99997.85;106002;1254;67316;-70
2023/08/17 04:05:45;;;;;;;51.60;18.00;;;;;;;28.24;52.52;100002.34;106004;1257;72520;-75
2023/08/17 04:08:12;;;;;;;29.80;15.70;;;;;;;28.52;51.76;100001.41;105952;1253;61569;-70
2023/08/17 04:10:39;;;;;;;28.10;15.50;;;;;;;28.60;51.00;100004.02;105909;1253;61294;-71
2023/08/17 04:13:06;;;;;;;25.40;13.60;;;;;;;28.71;50.69;100008.20;105917;1256;75096;-75
2023/08/17 04:15:33;;;;;;;20.50;13.70;;;;;;;28.89;49.96;100010.75;105866;1254;69138;-76
2023/08/17 04:18:00;;;;;;;22.80;14.00;;;;;;;29.07;49.35;100013.69;105787;1254;72629;-71
2023/08/17 04:20:27;;;;;;;23.80;13.60;;;;;;;29.10;49.29;100009.80;105934;1254;61801;-76
2023/08/17 04:22:53;;;;;;;21.20;12.40;;;;;;;29.21;48.88;100015.52;105911;1252;62389;-72
2023/08/17 04:25:20;;;;;;;19.30;13.20;;;;;;;29.38;48.57;100016.27;105953;1254;75172;-74
2023/08/17 04:27:47;;;;;;;17.70;12.00;;;;;;;29.47;48.28;100019.84;105972;1254;69126;-70
2023/08/17 04:30:14;;;;;;;29.20;14.40;;;;;;;29.82;47.67;100017.22;105670;1254;73141;-70
2023/08/17 04:32:52;;;;;;;28.10;11.50;;;;;;;30.21;46.65;100023.09;105880;1253;62041;-71
2023/08/17 04:35:20;;;;;;;16.20;11.00;;;;;;;30.41;45.99;100030.80;105728;1254;61340;-70
2023/08/17 04:37:47;;;;;;;13.50;10.10;;;;;;;30.60;45.49;100029.67;105917;1257;75319;-70
2023/08/17 04:40:14;;;;;;;15.60;10.30;;;;;;;30.43;45.27;100028.05;105970;1253;69001;-71
2023/08/17 04:42:42;;;;;;;17.10;9.70;;;;;;;30.49;45.39;100035.89;105995;1253;73160;-70
2023/08/17 04:45:09;;;;;;;16.90;9.40;;;;;;;30.74;44.99;100037.27;106093;1252;61535;-70
2023/08/17 04:47:39;;;;;;;14.90;9.70;;;;;;;30.85;44.60;100038.92;105993;1252;62326;-71
2023/08/17 04:50:07;;;;;;;16.60;9.60;;;;;;;31.16;44.14;100040.82;105993;1256;75105;-74
2023/08/17 04:52:34;;;;;;;;;;;;;;;31.34;43.68;100043.22;105967;1256;69051;-69
2023/08/17 04:55:02;;;;;;;12.50;9.50;;;;;;;31.24;43.67;100042.88;105955;1254;73088;-71
2023/08/17 04:57:30;;;;;;;14.40;9.20;;;;;;;31.34;43.56;100043.78;106033;1253;61925;-69
2023/08/17 04:59:58;;;;;;;12.60;9.30;;;;;;;31.47;43.30;100040.81;105938;1253;61254;-70
2023/08/17 05:02:24;;;;;;;16.80;8.70;;;;;;;31.51;43.29;100044.49;105964;1255;75086;-69
2023/08/17 05:04:52;;;;;;;8.30;7.50;;;;;;;31.71;43.06;100043.70;105971;1253;69228;-71
2023/08/17 05:07:19;;;;;;;10.60;8.10;;;;;;;31.68;42.65;100044.94;106000;1255;72969;-72
2023/08/17 05:09:46;;;;;;;8.70;7.80;;;;;;;31.76;42.55;100043.42;106006;1256;61289;-74
2023/08/17 05:12:13;;;;;;;10.30;8.30;;;;;;;31.99;42.27;100045.25;105936;1253;61339;-72
2023/08/17 05:14:40;;;;;;;14.70;8.70;;;;;;;31.80;42.45;100042.81;105986;1256;65723;-70
2023/08/17 05:17:08;;;;;;;13.00;7.90;;;;;;;31.70;42.78;100042.73;105939;1254;61308;-69
2023/08/17 05:19:35;;;;;;;10.70;8.10;;;;;;;31.59;42.89;100044.72;105965;1256;72502;-70
2023/08/17 05:22:02;;;;;;;13.40;8.50;;;;;;;31.47;43.18;100042.48;106010;1253;61332;-72
2023/08/17 05:24:29;;;;;;;18.40;9.30;;;;;;;31.68;43.25;100043.76;105956;1253;61289;-68
2023/08/17 05:26:56;;;;;;;14.60;7.80;;;;;;;32.24;42.36;100048.17;105964;1253;75044;-71
2023/08/17 05:29:23;;;;;;;12.40;7.70;;;;;;;32.23;41.64;100044.59;106051;1253;68981;-71
2023/08/17 05:31:49;;;;;;;11.70;7.90;;;;;;;31.72;42.63;100041.73;106024;1256;73012;-74
2023/08/17 05:34:16;;;;;;;9.10;7.70;;;;;;;32.05;42.31;100039.73;105924;1253;61255;-70
2023/08/17 05:36:45;;;;;;;9.40;8.20;;;;;;;32.23;42.11;100043.17;105690;1251;61227;-71
2023/08/17 05:39:13;;;;;;;9.70;8.40;;;;;;;32.41;41.87;100040.73;105966;1255;75087;-70
2023/08/17 05:41:39;;;;;;;9.60;8.00;;;;;;;32.56;41.55;100043.17;105992;1253;68811;-70
2023/08/17 05:44:09;;;;;;;12.00;8.10;;;;;;;32.65;41.24;100045.29;105737;1253;63804;-72
2023/08/17 05:46:36;;;;;;;8.10;7.30;;;;;;;32.85;40.87;100045.11;105998;1253;62311;-69
2023/08/17 05:49:04;;;;;;;10.70;6.10;;;;;;;33.11;40.59;100046.29;105973;1253;61207;-70
2023/08/17 05:51:31;;;;;;;11.80;6.90;;;;;;;33.25;40.25;100049.73;105993;1255;65780;-71
2023/08/17 05:53:58;;;;;;;8.70;6.20;;;;;;;33.70;39.26;100051.17;105942;1255;61271;-69
2023/08/17 05:56:24;;;;;;;6.40;5.80;;;;;;;33.94;38.61;100053.77;105957;1255;63928;-69
2023/08/17 05:58:51;;;;;;;15.40;6.50;;;;;;;34.26;38.22;100052.76;105684;1253;61151;-70
2023/08/17 06:01:19;;;;;;;9.00;5.60;;;;;;;34.50;37.42;100047.98;106052;1254;61203;-69
2023/08/17 06:03:45;;;;;;;11.70;6.20;;;;;;;34.25;37.57;100051.27;105971;1254;65658;-70
2023/08/17 06:06:13;;;;;;;20.80;7.70;;;;;;;34.21;37.65;100054.30;105993;1252;61305;-71
2023/08/17 06:08:39;;;;;;;6.70;5.70;;;;;;;34.29;36.87;100053.16;106020;1254;63931;-68
2023/08/17 06:11:06;;;;;;;7.70;6.00;;;;;;;34.57;35.92;100053.70;105935;1252;61276;-70
2023/08/17 06:13:35;;;;;;;9.50;7.00;;;;;;;34.75;35.87;100054.19;105848;1253;61423;-75
2023/08/17 06:16:02;;;;;;;11.10;6.10;;;;;;;35.10;35.88;100053.27;105986;1256;66427;-72
2023/08/17 06:18:30;;;;;;;10.40;7.10;;;;;;;35.54;34.87;100051.52;105984;1253;61336;-71
2023/08/17 06:20:57;;;;;;;9.60;5.90;;;;;;;35.87;34.36;100053.06;106010;1253;63926;-69
2023/08/17 06:23:24;;;;;;;11.20;5.60;;;;;;;35.84;34.46;100054.93;105918;1253;61306;-70
2023/08/17 06:25:51;;;;;;;26.90;8.10;;;;;;;35.69;34.68;100052.67;106027;1253;61254;-69
2023/08/17 06:28:17;;;;;;;10.40;5.10;;;;;;;35.42;34.68;100050.17;105941;1253;65741;-69
2023/08/17 06:30:44;;;;;;;7.90;5.50;;;;;;;35.38;35.26;100049.17;105997;1253;61319;-69
2023/08/17 06:33:11;;;;;;;5.90;5.10;;;;;;;35.56;35.37;100048.47;105717;1259;64117;-68
2023/08/17 06:35:38;;;;;;;7.20;4.90;;;;;;;35.74;35.05;100053.52;105942;1254;62407;-72
2023/08/17 06:38:04;;;;;;;8.70;5.00;;;;;;;35.77;34.94;100055.08;105942;1256;61267;-68
2023/08/17 06:40:31;;;;;;;5.30;4.60;;;;;;;35.75;34.81;100055.09;105950;1252;65678;-69
2023/08/17 06:42:58;;;;;;;6.10;4.60;;;;;;;35.62;35.05;100059.92;105752;1253;61357;-68
2023/08/17 06:45:25;;;;;;;7.80;4.80;;;;;;;35.60;34.61;100056.42;105995;1252;63865;-70
2023/08/17 06:47:52;;;;;;;9.30;4.40;;;;;;;35.65;34.41;100055.02;105976;1253;61192;-67
2023/08/17 06:50:19;;;;;;;6.50;4.90;;;;;;;35.69;34.70;100057.71;105928;1252;61241;-69
2023/08/17 06:52:45;;;;;;;6.90;4.80;;;;;;;35.69;34.63;100058.25;105729;1255;65907;-70
2023/08/17 06:55:12;;;;;;;5.20;4.80;;;;;;;35.71;34.43;100060.23;105932;1253;61266;-73
2023/08/17 06:57:39;;;;;;;8.20;5.00;;;;;;;35.60;34.55;100056.02;105780;1252;63960;-69
2023/08/17 07:00:07;;;;;;;5.20;4.70;;;;;;;35.22;35.19;100058.14;105947;1253;61273;-67
2023/08/17 07:02:34;;;;;;;7.90;4.70;;;;;;;35.43;35.09;100060.77;105959;1255;61251;-70
2023/08/17 07:05:19;;;;;;;6.40;4.90;;;;;;;36.08;33.85;100062.09;105931;1253;65975;-68
2023/08/17 07:07:46;;;;;;;22.90;6.00;;;;;;;36.34;33.51;100067.83;105913;1253;62430;-68
2023/08/17 07:10:13;;;;;;;6.20;4.70;;;;;;;36.40;33.55;100071.75;105970;1254;63931;-70
2023/08/17 07:12:40;;;;;;;5.80;3.90;;;;;;;36.16;33.77;100064.73;105964;1253;61227;-69
2023/08/17 07:15:07;;;;;;;6.10;3.70;;;;;;;35.66;34.09;100059.22;105978;1253;61321;-68
2023/08/17 07:17:34;;;;;;;5.80;3.30;;;;;;;35.25;34.19;100056.29;105973;1254;65988;-69
2023/08/17 07:20:01;;;;;;;8.40;4.20;;;;;;;35.84;33.61;100062.49;105957;1253;61349;-71
2023/08/17 07:22:31;;;;;;;7.70;4.00;;;;;;;35.99;32.61;100064.50;105964;1253;63861;-72
2023/08/17 07:24:58;;;;;;;5.40;3.30;;;;;;;35.87;32.38;100059.77;105909;1253;62291;-68
2023/08/17 07:27:25;;;;;;;16.30;3.60;;;;;;;36.04;32.59;100055.77;105937;1253;61260;-72
2023/08/17 07:29:53;;;;;;;3.20;2.50;;;;;;;36.27;31.91;100051.55;105810;1253;66056;-70
2023/08/17 07:32:20;;;;;;;5.30;2.90;;;;;;;36.41;31.46;100053.36;105898;1253;62431;-71
2023/08/17 07:34:48;;;;;;;8.10;3.20;;;;;;;36.35;31.53;100054.71;105746;1257;63915;-69
2023/08/17 07:37:15;;;;;;;5.70;3.40;;;;;;;36.35;31.74;100053.84;105960;1255;61335;-69
2023/08/17 07:39:42;;;;;;;8.50;3.40;;;;;;;36.49;31.52;100059.01;106050;1253;61158;-71
2023/08/17 07:42:09;;;;;;;4.30;2.70;;;;;;;36.69;30.72;100055.83;105984;1254;65760;-69
2023/08/17 07:44:36;;;;;;;3.00;2.70;;;;;;;36.91;30.55;100054.39;105942;1253;61379;-74
2023/08/17 07:47:03;;;;;;;4.80;2.70;;;;;;;36.35;31.20;100052.54;105957;1254;64001;-67
2023/08/17 07:49:30;;;;;;;3.60;2.50;;;;;;;35.43;31.89;100050.23;105781;1253;61303;-69
2023/08/17 07:51:59;;;;;;;3.70;2.70;;;;;;;35.63;31.85;100048.65;105954;1253;61261;-71
2023/08/17 07:54:26;;;;;;;9.60;3.00;;;;;;;35.90;31.43;100053.75;105923;1255;65950;-70
2023/08/17 07:56:53;;;;;;;9.80;2.90;;;;;;;36.07;31.21;100054.55;105966;1253;61344;-70
2023/08/17 07:59:20;;;;;;;5.80;2.90;;;;;;;36.20;31.03;100055.77;105988;1254;63856;-70
2023/08/17 08:01:47;;;;;;;6.90;2.60;;;;;;;36.00;30.97;100054.29;106013;1253;61117;-70
2023/08/17 08:04:14;;;;;;;8.10;2.70;;;;;;;35.58;31.28;100054.19;105975;1254;61360;-74
2023/08/17 08:06:41;;;;;;;6.30;3.30;;;;;;;35.36;31.40;100051.89;105951;1255;65879;-68
2023/08/17 08:09:08;;;;;;;5.20;2.90;;;;;;;34.96;31.99;100047.53;105973;1253;61270;-69
2023/08/17 08:11:34;;;;;;;4.90;2.90;;;;;;;34.62;32.65;100043.88;105943;1252;63804;-67
2023/08/17 08:14:01;;;;;;;4.60;2.70;;;;;;;34.94;32.25;100044.35;105946;1253;61252;-68
2023/08/17 08:16:32;;;;;;;4.60;2.60;;;;;;;35.32;31.64;100047.14;105994;1252;61350;-70
2023/08/17 08:18:58;;;;;;;5.60;2.70;;;;;;;35.88;31.01;100055.77;105915;1256;75060;-70
2023/08/17 08:21:27;;;;;;;12.40;3.10;;;;;;;36.45;30.48;100058.17;105995;1253;61356;-70
2023/08/17 08:23:54;;;;;;;10.30;2.80;;;;;;;36.67;30.49;100061.93;105967;1253;63805;-70
2023/08/17 08:26:21;;;;;;;5.00;3.00;;;;;;;36.50;30.47;100063.16;105964;1253;61392;-72
2023/08/17 08:28:48;;;;;;;7.00;2.90;;;;;;;36.04;30.69;100059.77;105995;1253;61283;-68
2023/08/17 08:31:14;;;;;;;9.20;3.10;;;;;;;35.78;30.89;100051.80;105719;1257;66217;-68
2023/08/17 08:33:41;;;;;;;3.00;2.70;;;;;;;36.06;30.73;100047.84;105952;1255;61426;-69
2023/08/17 08:36:08;;;;;;;4.90;2.80;;;;;;;36.10;30.24;100046.78;105962;1252;63826;-71
2023/08/17 08:38:35;;;;;;;4.70;2.30;;;;;;;36.63;29.91;100049.90;105920;1256;61324;-72
2023/08/17 08:41:02;;;;;;;4.10;2.60;;;;;;;36.88;29.21;100055.17;105833;1252;171982;-69
2023/08/17 08:43:29;;;;;;;;;;;;;;;36.74;29.65;100053.69;105979;1254;65973;-70
2023/08/17 08:45:56;;;;;;;;;;;;;;;36.60;29.48;100049.39;106023;1253;61321;-73
2023/08/17 08:48:23;;;;;;;;;;;;;;;36.29;30.22;100046.07;105963;1254;63599;-69
2023/08/17 08:50:50;;;;;;;3.80;2.80;;;;;;;35.73;30.69;100043.61;105969;1253;62369;-69
2023/08/17 08:53:17;;;;;;;3.50;2.70;;;;;;;35.91;30.55;100046.40;105953;1253;61245;-70
2023/08/17 08:55:50;;;;;;;5.70;3.20;;;;;;;36.24;30.33;100043.02;105949;1256;65901;-69
2023/08/17 08:58:16;;;;;;;5.20;2.60;;;;;;;35.88;30.59;100039.95;105724;1252;61403;-70
2023/08/17 09:00:45;;;;;;;4.10;2.60;;;;;;;35.70;30.71;100038.54;105668;1253;63934;-70
2023/08/17 09:03:12;;;;;;;3.20;2.50;;;;;;;35.80;30.70;100040.05;105969;1253;62350;-72
2023/08/17 09:05:39;;;;;;;3.70;2.40;;;;;;;35.83;30.17;100042.26;106016;1252;61324;-73
2023/08/17 09:08:09;;;;;;;3.00;2.70;;;;;;;35.91;30.07;100039.77;105926;1255;65691;-76
2023/08/17 09:10:36;;;;;;;4.40;2.70;;;;;;;36.20;29.98;100042.19;105967;1256;62106;-74
2023/08/17 09:13:05;;;;;;;5.80;2.80;;;;;;;36.63;29.45;100041.61;105987;1253;63606;-69
2023/08/17 09:15:32;;;;;;;3.20;2.40;;;;;;;37.22;29.42;100046.91;105975;1253;61110;-69
2023/08/17 09:17:59;;;;;;;3.90;2.30;;;;;;;37.52;28.31;100044.29;106001;1252;61248;-69
2023/08/17 09:20:44;;;;;;;4.40;2.30;;;;;;;37.04;28.61;100044.06;105919;1255;65872;-69
2023/08/17 09:23:22;;;;;;;22.80;3.50;;;;;;;37.16;28.15;100042.61;105968;1253;61268;-70
2023/08/17 09:25:51;;;;;;;9.40;2.40;;;;;;;36.96;28.60;100038.11;105925;1253;63927;-70
2023/08/17 09:28:19;;;;;;;2.50;2.10;;;;;;;36.63;28.43;100035.35;106030;1253;61202;-70
2023/08/17 09:30:53;;;;;;;4.10;2.40;;;;;;;36.77;27.94;100033.09;105987;1253;61306;-70
2023/08/17 09:33:21;;;;;;;4.20;2.50;;;;;;;37.24;27.85;100040.90;105710;1259;66050;-68
2023/08/17 09:35:52;;;;;;;3.30;2.30;;;;;;;37.21;27.75;100034.80;105953;1253;61225;-71
2023/08/17 09:38:25;;;;;;;3.80;2.30;;;;;;;37.11;27.94;100033.27;105721;1253;63740;-69
2023/08/17 09:40:52;;;;;;;5.90;3.10;;;;;;;37.31;27.98;100030.06;105942;1253;61299;-69
2023/08/17 09:43:22;;;;;;;4.10;2.80;;;;;;;36.85;28.46;100027.23;106044;1252;61260;-71
2023/08/17 09:45:49;;;;;;;5.60;2.70;;;;;;;36.78;28.52;100027.98;105953;1255;65825;-72
2023/08/17 09:48:17;;;;;;;7.20;3.10;;;;;;;36.75;28.38;100031.30;106042;1253;61279;-70
2023/08/17 09:50:45;;;;;;;3.80;2.50;;;;;;;36.52;28.71;100029.68;105899;1254;63845;-70
2023/08/17 09:53:16;;;;;;;6.30;2.90;;;;;;;36.06;29.48;100029.57;105965;1253;61313;-69
2023/08/17 09:55:43;;;;;;;3.10;2.60;;;;;;;36.33;29.32;100027.67;105942;1253;61248;-69
2023/08/17 09:58:16;;;;;;;2.70;2.40;;;;;;;36.53;28.75;100021.83;105645;1260;66103;-69
2023/08/17 10:00:49;;;;;;;3.30;2.60;;;;;;;36.76;28.84;100022.48;105777;1253;61347;-71
2023/08/17 10:03:19;;;;;;;4.70;2.50;;;;;;;36.88;28.54;100024.55;105940;1253;62416;-69
2023/08/17 10:05:48;;;;;;;5.10;2.40;;;;;;;36.85;28.68;100021.41;105915;1256;61244;-70
2023/08/17 10:08:17;;;;;;;4.20;2.20;;;;;;;37.14;28.25;100027.61;106021;1255;61293;-69
2023/08/17 10:10:44;;;;;;;3.20;2.50;;;;;;;37.03;27.46;100029.30;105946;1255;65906;-71
2023/08/17 10:13:28;;;;;;;7.60;2.40;;;;;;;36.98;27.76;100023.61;105976;1253;61254;-75
2023/08/17 10:16:00;;;;;;;3.20;2.10;;;;;;;37.19;27.63;100024.81;105929;1255;63922;-69
2023/08/17 10:18:34;;;;;;;3.40;2.10;;;;;;;37.18;27.12;100022.27;105934;1253;62399;-71
2023/08/17 10:21:04;;;;;;;3.10;1.90;;;;;;;36.77;27.90;100018.02;105941;1252;61348;-74
2023/08/17 10:23:31;;;;;;;4.70;2.00;;;;;;;37.17;27.26;100017.83;105971;1253;64518;-73
2023/08/17 10:25:58;;;;;;;5.50;2.00;;;;;;;36.88;27.44;100014.00;106022;1253;61882;-70
2023/08/17 10:28:25;;;;;;;2.20;2.00;;;;;;;36.89;27.47;100012.46;105692;1254;63783;-74
2023/08/17 10:30:52;;;;;;;4.90;1.90;;;;;;;37.08;27.25;100014.20;105953;1252;61338;-74
2023/08/17 10:33:19;;;;;;;3.40;2.10;;;;;;;36.92;27.47;100012.52;105932;1253;61248;-73
2023/08/17 10:35:45;;;;;;;2.30;1.70;;;;;;;37.04;27.18;100015.54;107467;1252;65879;-69
2023/08/17 10:38:19;;;;;;;1.80;1.70;;;;;;;37.11;26.94;100009.91;109560;1252;58671;-71
2023/08/17 10:40:45;;;;;;;2.30;1.80;;;;;;;37.22;27.23;100004.23;107714;1257;62692;-70
2023/08/17 10:43:13;;;;;;;4.80;2.00;;;;;;;37.31;27.26;100003.69;107204;1253;61128;-69
2023/08/17 10:45:40;;;;;;;2.70;1.70;;;;;;;37.02;27.51;99996.15;105962;1253;61353;-72
2023/08/17 10:48:07;;;;;;;;;;;;;;;36.94;27.95;99993.95;105733;1253;66057;-73
2023/08/17 10:50:37;;;;;;;2.70;1.90;;;;;;;36.95;27.56;99994.56;106045;1253;62663;-77
2023/08/17 10:53:12;;;;;;;2.10;1.90;;;;;;;36.71;27.55;99993.16;105797;1253;63767;-72
2023/08/17 10:55:44;;;;;;;5.50;2.10;;;;;;;36.80;27.77;99986.98;105824;1257;61327;-70
2023/08/17 10:58:11;;;;;;;3.80;2.30;;;;;;;36.79;27.65;99986.74;105980;1255;61221;-69
2023/08/17 11:00:44;;;;;;;4.60;2.00;;;;;;;37.08;27.41;99985.25;105939;1256;75155;-69
2023/08/17 11:03:19;;;;;;;3.60;1.90;;;;;;;37.11;26.90;99978.82;105960;1255;61226;-71
2023/08/17 11:05:55;;;;;;;2.30;2.10;;;;;;;37.13;27.13;99975.04;105924;1253;63737;-71
2023/08/17 11:08:33;;;;;;;2.50;1.90;;;;;;;36.81;26.40;99974.32;105965;1253;61244;-71
2023/08/17 11:11:19;;;;;;;4.10;2.00;;;;;;;36.56;26.78;99968.90;105946;1253;61332;-69
2023/08/17 11:13:47;;;;;;;8.80;1.80;;;;;;;36.54;27.03;99971.42;105953;1254;65906;-68
2023/08/17 11:16:15;;;;;;;1.80;1.70;;;;;;;36.51;26.56;99970.81;105968;1253;62274;-71
2023/08/17 11:18:49;;;;;;;5.00;1.80;;;;;;;36.45;26.94;99967.22;105944;1256;62666;-70